sensor_id;sensor_type;location;lat;lon;timestamp;P1;durP1;ratioP1;P2;durP2;ratioP2
53287;SDS011;39172;45.550;12.072;2024-03-08T00:02:37;10.75;;;5.65;;
53287;SDS011;39172;45.550;12.072;2024-03-08T00:08:41;9.98;;;4.80;;
53287;SDS011;39172;45.550;12.072;2024-03-08T00:14:42;8.07;;;7.28;;
53287;SDS011;39172;45.550;12.072;2024-03-08T00:20:43;8.80;;;7.82;;
53287;SDS011;39172;45.550;12.072;2024-03-08T00:26:46;9.98;;;5.60;;
53287;SDS011;39172;45.550;12.072;2024-03-08T00:32:47;7.88;;;7.07;;
53287;SDS011;39172;45.550;12.072;2024-03-08T00:38:49;8.35;;;4.53;;
53287;SDS011;39172;45.550;12.072;2024-03-08T00:44:53;7.82;;;6.80;;
53287;SDS011;39172;45.550;12.072;2024-03-08T00:50:55;9.00;;;4.60;;
53287;SDS011;39172;45.550;12.072;2024-03-08T00:56:55;8.13;;;7.03;;
53287;SDS011;39172;45.550;12.072;2024-03-08T01:02:56;7.40;;;4.70;;
53287;SDS011;39172;45.550;12.072;2024-03-08T01:08:57;8.13;;;4.30;;
53287;SDS011;39172;45.550;12.072;2024-03-08T01:15:01;8.32;;;7.40;;
53287;SDS011;39172;45.550;12.072;2024-03-08T01:21:02;7.90;;;7.10;;
53287;SDS011;39172;45.550;12.072;2024-03-08T01:27:03;7.38;;;6.68;;
53287;SDS011;39172;45.550;12.072;2024-03-08T01:33:04;7.70;;;6.80;;
53287;SDS011;39172;45.550;12.072;2024-03-08T01:39:05;7.68;;;5.15;;
53287;SDS011;39172;45.550;12.072;2024-03-08T01:45:08;9.23;;;7.30;;
53287;SDS011;39172;45.550;12.072;2024-03-08T01:51:09;6.65;;;4.03;;
53287;SDS011;39172;45.550;12.072;2024-03-08T01:57:12;6.75;;;4.07;;
53287;SDS011;39172;45.550;12.072;2024-03-08T02:03:17;6.88;;;4.05;;
53287;SDS011;39172;45.550;12.072;2024-03-08T02:09:18;8.60;;;7.53;;
53287;SDS011;39172;45.550;12.072;2024-03-08T02:15:19;7.22;;;4.28;;
53287;SDS011;39172;45.550;12.072;2024-03-08T02:21:22;6.65;;;4.18;;
53287;SDS011;39172;45.550;12.072;2024-03-08T02:27:25;6.75;;;4.05;;
53287;SDS011;39172;45.550;12.072;2024-03-08T02:33:26;7.55;;;4.90;;
53287;SDS011;39172;45.550;12.072;2024-03-08T02:39:28;7.85;;;4.60;;
53287;SDS011;39172;45.550;12.072;2024-03-08T02:45:31;6.80;;;6.10;;
53287;SDS011;39172;45.550;12.072;2024-03-08T02:51:32;5.28;;;3.10;;
53287;SDS011;39172;45.550;12.072;2024-03-08T02:57:36;6.03;;;4.07;;
53287;SDS011;39172;45.550;12.072;2024-03-08T03:03:37;6.00;;;5.40;;
53287;SDS011;39172;45.550;12.072;2024-03-08T03:09:38;5.30;;;3.13;;
53287;SDS011;39172;45.550;12.072;2024-03-08T03:15:39;6.80;;;3.10;;
53287;SDS011;39172;45.550;12.072;2024-03-08T03:21:48;4.07;;;2.67;;
53287;SDS011;39172;45.550;12.072;2024-03-08T03:27:52;4.70;;;3.95;;
53287;SDS011;39172;45.550;12.072;2024-03-08T03:33:53;3.20;;;2.20;;
53287;SDS011;39172;45.550;12.072;2024-03-08T03:39:54;3.85;;;2.45;;
53287;SDS011;39172;45.550;12.072;2024-03-08T03:45:56;4.18;;;3.78;;
53287;SDS011;39172;45.550;12.072;2024-03-08T03:51:57;3.80;;;2.30;;
53287;SDS011;39172;45.550;12.072;2024-03-08T03:57:58;3.63;;;3.30;;
53287;SDS011;39172;45.550;12.072;2024-03-08T04:04:01;2.85;;;1.92;;
53287;SDS011;39172;45.550;12.072;2024-03-08T04:10:03;3.38;;;3.08;;
53287;SDS011;39172;45.550;12.072;2024-03-08T04:16:04;3.92;;;2.33;;
53287;SDS011;39172;45.550;12.072;2024-03-08T04:22:09;3.63;;;2.30;;
53287;SDS011;39172;45.550;12.072;2024-03-08T04:28:10;3.13;;;2.00;;
53287;SDS011;39172;45.550;12.072;2024-03-08T04:34:14;3.30;;;2.25;;
53287;SDS011;39172;45.550;12.072;2024-03-08T04:40:15;3.85;;;2.60;;
53287;SDS011;39172;45.550;12.072;2024-03-08T04:46:16;3.60;;;2.35;;
53287;SDS011;39172;45.550;12.072;2024-03-08T04:52:17;3.45;;;2.10;;
53287;SDS011;39172;45.550;12.072;2024-03-08T04:58:19;3.88;;;2.42;;
53287;SDS011;39172;45.550;12.072;2024-03-08T05:04:21;4.45;;;2.75;;
53287;SDS011;39172;45.550;12.072;2024-03-08T05:10:23;4.80;;;4.40;;
53287;SDS011;39172;45.550;12.072;2024-03-08T05:16:24;4.57;;;2.75;;
53287;SDS011;39172;45.550;12.072;2024-03-08T05:22:30;4.55;;;2.65;;
53287;SDS011;39172;45.550;12.072;2024-03-08T05:28:34;4.38;;;2.67;;
53287;SDS011;39172;45.550;12.072;2024-03-08T05:34:44;3.90;;;2.55;;
53287;SDS011;39172;45.550;12.072;2024-03-08T05:40:45;5.55;;;3.03;;
53287;SDS011;39172;45.550;12.072;2024-03-08T05:46:50;4.55;;;2.50;;
53287;SDS011;39172;45.550;12.072;2024-03-08T05:52:51;6.10;;;2.78;;
53287;SDS011;39172;45.550;12.072;2024-03-08T05:58:53;4.65;;;2.85;;
53287;SDS011;39172;45.550;12.072;2024-03-08T06:04:54;4.85;;;2.65;;
53287;SDS011;39172;45.550;12.072;2024-03-08T06:10:56;4.10;;;2.33;;
53287;SDS011;39172;45.550;12.072;2024-03-08T06:16:57;3.38;;;2.33;;
53287;SDS011;39172;45.550;12.072;2024-03-08T06:22:58;4.82;;;4.25;;
53287;SDS011;39172;45.550;12.072;2024-03-08T06:29:00;3.80;;;2.30;;
53287;SDS011;39172;45.550;12.072;2024-03-08T06:35:01;3.13;;;2.10;;
53287;SDS011;39172;45.550;12.072;2024-03-08T06:41:03;5.10;;;3.05;;
53287;SDS011;39172;45.550;12.072;2024-03-08T06:47:04;5.93;;;3.50;;
53287;SDS011;39172;45.550;12.072;2024-03-08T06:53:07;4.63;;;2.80;;
53287;SDS011;39172;45.550;12.072;2024-03-08T06:59:08;4.07;;;2.72;;
53287;SDS011;39172;45.550;12.072;2024-03-08T07:05:11;3.85;;;2.60;;
53287;SDS011;39172;45.550;12.072;2024-03-08T07:11:12;6.40;;;3.22;;
53287;SDS011;39172;45.550;12.072;2024-03-08T07:17:13;6.07;;;3.83;;
53287;SDS011;39172;45.550;12.072;2024-03-08T07:23:14;4.95;;;3.22;;
53287;SDS011;39172;45.550;12.072;2024-03-08T07:29:35;5.35;;;3.40;;
53287;SDS011;39172;45.550;12.072;2024-03-08T07:35:36;7.03;;;3.92;;
53287;SDS011;39172;45.550;12.072;2024-03-08T07:41:38;6.43;;;4.00;;
53287;SDS011;39172;45.550;12.072;2024-03-08T07:47:40;5.25;;;3.45;;
53287;SDS011;39172;45.550;12.072;2024-03-08T07:53:41;5.95;;;3.75;;
53287;SDS011;39172;45.550;12.072;2024-03-08T07:59:42;8.85;;;4.60;;
53287;SDS011;39172;45.550;12.072;2024-03-08T08:05:43;6.65;;;3.92;;
53287;SDS011;39172;45.550;12.072;2024-03-08T08:11:44;6.03;;;3.70;;
53287;SDS011;39172;45.550;12.072;2024-03-08T08:17:45;7.53;;;3.90;;
53287;SDS011;39172;45.550;12.072;2024-03-08T08:23:46;7.72;;;4.70;;
53287;SDS011;39172;45.550;12.072;2024-03-08T08:29:47;8.98;;;4.63;;
53287;SDS011;39172;45.550;12.072;2024-03-08T08:35:50;7.15;;;4.63;;
53287;SDS011;39172;45.550;12.072;2024-03-08T08:41:54;6.88;;;4.25;;
53287;SDS011;39172;45.550;12.072;2024-03-08T08:47:55;7.43;;;4.47;;
53287;SDS011;39172;45.550;12.072;2024-03-08T08:53:56;7.55;;;6.78;;
53287;SDS011;39172;45.550;12.072;2024-03-08T08:59:57;8.68;;;5.50;;
53287;SDS011;39172;45.550;12.072;2024-03-08T09:05:58;8.73;;;4.75;;
53287;SDS011;39172;45.550;12.072;2024-03-08T09:11:59;8.88;;;4.93;;
53287;SDS011;39172;45.550;12.072;2024-03-08T09:18:00;9.35;;;5.35;;
53287;SDS011;39172;45.550;12.072;2024-03-08T09:24:01;10.18;;;5.80;;
53287;SDS011;39172;45.550;12.072;2024-03-08T09:30:02;10.98;;;6.38;;
53287;SDS011;39172;45.550;12.072;2024-03-08T09:36:03;9.90;;;5.60;;
53287;SDS011;39172;45.550;12.072;2024-03-08T09:42:04;12.50;;;6.78;;
53287;SDS011;39172;45.550;12.072;2024-03-08T09:48:09;10.32;;;6.03;;
53287;SDS011;39172;45.550;12.072;2024-03-08T09:54:12;10.85;;;5.72;;
53287;SDS011;39172;45.550;12.072;2024-03-08T10:00:13;10.52;;;6.30;;
53287;SDS011;39172;45.550;12.072;2024-03-08T10:06:24;14.38;;;7.28;;
53287;SDS011;39172;45.550;12.072;2024-03-08T10:12:26;10.63;;;9.52;;
53287;SDS011;39172;45.550;12.072;2024-03-08T10:18:29;10.68;;;5.90;;
53287;SDS011;39172;45.550;12.072;2024-03-08T10:24:30;13.90;;;6.75;;
53287;SDS011;39172;45.550;12.072;2024-03-08T10:30:31;12.57;;;7.18;;
53287;SDS011;39172;45.550;12.072;2024-03-08T10:36:33;11.80;;;6.22;;
53287;SDS011;39172;45.550;12.072;2024-03-08T10:42:35;10.40;;;6.35;;
53287;SDS011;39172;45.550;12.072;2024-03-08T10:48:43;10.57;;;6.22;;
53287;SDS011;39172;45.550;12.072;2024-03-08T10:54:44;10.77;;;5.97;;
53287;SDS011;39172;45.550;12.072;2024-03-08T11:00:45;12.85;;;7.50;;
53287;SDS011;39172;45.550;12.072;2024-03-08T11:06:46;11.65;;;6.22;;
53287;SDS011;39172;45.550;12.072;2024-03-08T11:12:47;10.75;;;9.63;;
53287;SDS011;39172;45.550;12.072;2024-03-08T11:18:49;12.07;;;6.90;;
53287;SDS011;39172;45.550;12.072;2024-03-08T11:24:50;12.32;;;9.55;;
53287;SDS011;39172;45.550;12.072;2024-03-08T11:37:15;10.02;;;5.85;;
53287;SDS011;39172;45.550;12.072;2024-03-08T11:43:18;12.45;;;6.85;;
53287;SDS011;39172;45.550;12.072;2024-03-08T11:49:20;12.35;;;6.68;;
53287;SDS011;39172;45.550;12.072;2024-03-08T11:55:21;15.15;;;7.47;;
53287;SDS011;39172;45.550;12.072;2024-03-08T12:01:22;9.73;;;5.60;;
53287;SDS011;39172;45.550;12.072;2024-03-08T12:07:24;11.27;;;6.07;;
53287;SDS011;39172;45.550;12.072;2024-03-08T12:13:29;12.68;;;6.32;;
53287;SDS011;39172;45.550;12.072;2024-03-08T12:19:30;10.50;;;5.97;;
53287;SDS011;39172;45.550;12.072;2024-03-08T12:25:31;12.90;;;6.68;;
53287;SDS011;39172;45.550;12.072;2024-03-08T12:31:35;12.50;;;7.28;;
53287;SDS011;39172;45.550;12.072;2024-03-08T12:37:36;14.48;;;7.28;;
53287;SDS011;39172;45.550;12.072;2024-03-08T12:43:39;11.98;;;6.70;;
53287;SDS011;39172;45.550;12.072;2024-03-08T12:49:40;13.20;;;6.72;;
53287;SDS011;39172;45.550;12.072;2024-03-08T12:55:41;13.75;;;7.35;;
53287;SDS011;39172;45.550;12.072;2024-03-08T13:01:42;15.00;;;7.05;;
53287;SDS011;39172;45.550;12.072;2024-03-08T13:07:43;13.55;;;7.10;;
53287;SDS011;39172;45.550;12.072;2024-03-08T13:13:47;11.55;;;6.38;;
53287;SDS011;39172;45.550;12.072;2024-03-08T13:19:48;11.95;;;6.25;;
53287;SDS011;39172;45.550;12.072;2024-03-08T13:25:49;13.25;;;7.13;;
53287;SDS011;39172;45.550;12.072;2024-03-08T13:31:50;13.90;;;7.20;;
53287;SDS011;39172;45.550;12.072;2024-03-08T13:37:52;13.45;;;6.97;;
53287;SDS011;39172;45.550;12.072;2024-03-08T13:43:53;16.10;;;6.82;;
53287;SDS011;39172;45.550;12.072;2024-03-08T13:49:54;13.02;;;7.05;;
53287;SDS011;39172;45.550;12.072;2024-03-08T13:55:55;14.18;;;8.00;;
53287;SDS011;39172;45.550;12.072;2024-03-08T14:01:57;14.48;;;7.47;;
53287;SDS011;39172;45.550;12.072;2024-03-08T14:07:58;17.75;;;7.60;;
53287;SDS011;39172;45.550;12.072;2024-03-08T14:14:01;17.30;;;8.45;;
53287;SDS011;39172;45.550;12.072;2024-03-08T14:20:02;19.15;;;9.48;;
53287;SDS011;39172;45.550;12.072;2024-03-08T14:26:04;22.63;;;9.90;;
53287;SDS011;39172;45.550;12.072;2024-03-08T14:32:07;20.50;;;9.13;;
53287;SDS011;39172;45.550;12.072;2024-03-08T14:38:09;21.20;;;9.80;;
53287;SDS011;39172;45.550;12.072;2024-03-08T14:44:11;17.08;;;8.02;;
53287;SDS011;39172;45.550;12.072;2024-03-08T14:50:12;14.63;;;6.95;;
53287;SDS011;39172;45.550;12.072;2024-03-08T14:56:13;16.55;;;7.45;;
53287;SDS011;39172;45.550;12.072;2024-03-08T15:02:17;19.35;;;8.43;;
53287;SDS011;39172;45.550;12.072;2024-03-08T15:08:20;15.48;;;7.07;;
53287;SDS011;39172;45.550;12.072;2024-03-08T15:14:21;18.65;;;8.50;;
53287;SDS011;39172;45.550;12.072;2024-03-08T15:20:21;13.75;;;6.97;;
53287;SDS011;39172;45.550;12.072;2024-03-08T15:26:26;13.63;;;7.22;;
53287;SDS011;39172;45.550;12.072;2024-03-08T15:32:28;12.82;;;6.43;;
53287;SDS011;39172;45.550;12.072;2024-03-08T15:38:33;14.45;;;7.13;;
53287;SDS011;39172;45.550;12.072;2024-03-08T15:44:33;19.20;;;8.80;;
53287;SDS011;39172;45.550;12.072;2024-03-08T15:50:34;16.55;;;7.13;;
53287;SDS011;39172;45.550;12.072;2024-03-08T15:56:36;17.00;;;8.55;;
53287;SDS011;39172;45.550;12.072;2024-03-08T16:02:38;16.55;;;8.05;;
53287;SDS011;39172;45.550;12.072;2024-03-08T16:08:39;20.88;;;10.55;;
53287;SDS011;39172;45.550;12.072;2024-03-08T16:14:40;18.25;;;8.43;;
53287;SDS011;39172;45.550;12.072;2024-03-08T16:20:41;21.20;;;9.13;;
53287;SDS011;39172;45.550;12.072;2024-03-08T16:26:44;19.17;;;9.25;;
53287;SDS011;39172;45.550;12.072;2024-03-08T16:32:46;18.40;;;9.02;;
53287;SDS011;39172;45.550;12.072;2024-03-08T16:38:52;16.42;;;7.97;;
53287;SDS011;39172;45.550;12.072;2024-03-08T16:44:53;16.88;;;7.78;;
53287;SDS011;39172;45.550;12.072;2024-03-08T16:50:54;20.00;;;8.85;;
53287;SDS011;39172;45.550;12.072;2024-03-08T16:56:57;20.17;;;9.32;;
53287;SDS011;39172;45.550;12.072;2024-03-08T17:02:59;17.23;;;8.38;;
53287;SDS011;39172;45.550;12.072;2024-03-08T17:09:00;21.27;;;9.93;;
53287;SDS011;39172;45.550;12.072;2024-03-08T17:15:01;14.00;;;7.15;;
53287;SDS011;39172;45.550;12.072;2024-03-08T17:21:02;14.13;;;7.43;;
53287;SDS011;39172;45.550;12.072;2024-03-08T17:27:06;15.05;;;7.72;;
53287;SDS011;39172;45.550;12.072;2024-03-08T17:33:09;14.05;;;7.07;;
53287;SDS011;39172;45.550;12.072;2024-03-08T17:39:13;18.08;;;8.77;;
53287;SDS011;39172;45.550;12.072;2024-03-08T17:57:22;11.32;;;6.07;;
53287;SDS011;39172;45.550;12.072;2024-03-08T18:03:23;11.50;;;6.10;;
53287;SDS011;39172;45.550;12.072;2024-03-08T18:09:29;12.82;;;6.68;;
53287;SDS011;39172;45.550;12.072;2024-03-08T18:15:30;12.20;;;7.07;;
53287;SDS011;39172;45.550;12.072;2024-03-08T18:21:34;12.63;;;6.53;;
53287;SDS011;39172;45.550;12.072;2024-03-08T18:27:38;11.65;;;6.32;;
53287;SDS011;39172;45.550;12.072;2024-03-08T18:33:39;11.75;;;6.47;;
53287;SDS011;39172;45.550;12.072;2024-03-08T18:39:45;12.55;;;6.85;;
53287;SDS011;39172;45.550;12.072;2024-03-08T18:45:46;12.55;;;7.13;;
53287;SDS011;39172;45.550;12.072;2024-03-08T18:51:48;14.32;;;12.10;;
53287;SDS011;39172;45.550;12.072;2024-03-08T18:57:52;15.48;;;7.75;;
53287;SDS011;39172;45.550;12.072;2024-03-08T19:03:53;13.50;;;7.43;;
53287;SDS011;39172;45.550;12.072;2024-03-08T19:09:56;11.93;;;6.93;;
53287;SDS011;39172;45.550;12.072;2024-03-08T19:15:58;13.50;;;7.07;;
53287;SDS011;39172;45.550;12.072;2024-03-08T19:21:58;12.82;;;7.07;;
53287;SDS011;39172;45.550;12.072;2024-03-08T19:28:00;11.93;;;10.50;;
53287;SDS011;39172;45.550;12.072;2024-03-08T19:34:01;13.63;;;7.63;;
53287;SDS011;39172;45.550;12.072;2024-03-08T19:40:02;15.90;;;8.35;;
53287;SDS011;39172;45.550;12.072;2024-03-08T19:46:06;13.40;;;7.90;;
53287;SDS011;39172;45.550;12.072;2024-03-08T19:52:10;12.40;;;7.15;;
53287;SDS011;39172;45.550;12.072;2024-03-08T19:58:11;12.27;;;10.38;;
53287;SDS011;39172;45.550;12.072;2024-03-08T20:04:12;11.00;;;6.60;;
53287;SDS011;39172;45.550;12.072;2024-03-08T20:10:13;13.20;;;6.55;;
53287;SDS011;39172;45.550;12.072;2024-03-08T20:16:16;11.82;;;7.50;;
53287;SDS011;39172;45.550;12.072;2024-03-08T20:22:18;14.48;;;7.85;;
53287;SDS011;39172;45.550;12.072;2024-03-08T20:28:19;12.25;;;6.97;;
53287;SDS011;39172;45.550;12.072;2024-03-08T20:34:20;10.13;;;6.20;;
53287;SDS011;39172;45.550;12.072;2024-03-08T20:40:25;10.40;;;5.72;;
53287;SDS011;39172;45.550;12.072;2024-03-08T20:46:45;11.55;;;6.25;;
53287;SDS011;39172;45.550;12.072;2024-03-08T20:52:47;9.85;;;5.72;;
53287;SDS011;39172;45.550;12.072;2024-03-08T20:58:50;11.20;;;6.15;;
53287;SDS011;39172;45.550;12.072;2024-03-08T21:04:52;11.15;;;6.35;;
53287;SDS011;39172;45.550;12.072;2024-03-08T21:10:53;10.88;;;5.97;;
53287;SDS011;39172;45.550;12.072;2024-03-08T21:16:54;10.77;;;6.20;;
53287;SDS011;39172;45.550;12.072;2024-03-08T21:22:56;9.98;;;5.97;;
53287;SDS011;39172;45.550;12.072;2024-03-08T21:28:57;9.88;;;8.68;;
53287;SDS011;39172;45.550;12.072;2024-03-08T21:34:58;11.43;;;7.22;;
53287;SDS011;39172;45.550;12.072;2024-03-08T21:40:59;10.00;;;6.07;;
53287;SDS011;39172;45.550;12.072;2024-03-08T21:47:02;10.27;;;6.15;;
53287;SDS011;39172;45.550;12.072;2024-03-08T21:53:04;10.93;;;6.53;;
53287;SDS011;39172;45.550;12.072;2024-03-08T21:59:08;10.57;;;6.13;;
53287;SDS011;39172;45.550;12.072;2024-03-08T22:05:09;10.13;;;9.02;;
53287;SDS011;39172;45.550;12.072;2024-03-08T22:11:24;11.05;;;6.30;;
53287;SDS011;39172;45.550;12.072;2024-03-08T22:17:25;10.13;;;6.07;;
53287;SDS011;39172;45.550;12.072;2024-03-08T22:23:26;9.65;;;5.93;;
53287;SDS011;39172;45.550;12.072;2024-03-08T22:29:27;10.00;;;6.03;;
53287;SDS011;39172;45.550;12.072;2024-03-08T22:35:28;10.95;;;6.25;;
53287;SDS011;39172;45.550;12.072;2024-03-08T22:41:28;11.68;;;6.72;;
53287;SDS011;39172;45.550;12.072;2024-03-08T22:47:31;8.45;;;5.35;;
53287;SDS011;39172;45.550;12.072;2024-03-08T22:53:34;8.85;;;5.45;;
53287;SDS011;39172;45.550;12.072;2024-03-08T22:59:35;7.60;;;4.93;;
53287;SDS011;39172;45.550;12.072;2024-03-08T23:05:36;7.57;;;4.80;;
53287;SDS011;39172;45.550;12.072;2024-03-08T23:11:41;10.95;;;6.68;;
53287;SDS011;39172;45.550;12.072;2024-03-08T23:17:44;9.98;;;5.65;;
53287;SDS011;39172;45.550;12.072;2024-03-08T23:23:46;9.05;;;5.38;;
53287;SDS011;39172;45.550;12.072;2024-03-08T23:29:50;9.75;;;5.40;;
53287;SDS011;39172;45.550;12.072;2024-03-08T23:35:51;10.63;;;6.18;;
53287;SDS011;39172;45.550;12.072;2024-03-08T23:41:52;10.18;;;5.97;;
53287;SDS011;39172;45.550;12.072;2024-03-08T23:47:54;10.45;;;6.28;;
53287;SDS011;39172;45.550;12.072;2024-03-08T23:53:55;9.40;;;5.60;;
53287;SDS011;39172;45.550;12.072;2024-03-08T23:59:56;10.93;;;5.72;;
